메인 페이지
METAR-TAF:

METAR-TAF

공항 :

나소, 바하마

위도: 25-03N, 경도: 077-28W, 고도: 3m

현재 날씨관측

예보는 1 시간 13분 전, 05:00시(UTC)에 발표되었습니다.
여러 방향의 바람 1kt
온도 28°C
습도 74%
기압 1020 hPa
시정 10km 이상
고도 1500ft 상공 구름 조금, 적란운.
고도 22000ft 상공 구름 보통

METAR: MYNN 170500Z VRB01KT 9999 FEW015CB SCT220 28/23 A3013 RMK CB/S

시각: 02:13 (06:13 UTC)

예보

예보는 2 시간 53분 전, 03:20시(UTC)에 발표되었습니다.
예보 대상 시간: 17일 06시부터 18일 06시까지 (UTC)
여러 방향의 바람 2kt
시정 10km 이상
고도 1500ft 상공 구름 보통, 적란운.
고도 22000ft 상공 구름 많음
뇌우, 비
확률 30% :
일시적
17일 11시부터 17일 18시까지 (UTC)
남남동9kt
시정: 8000m
고도 1800ft 상공 구름 조금, 적란운.
고도 2000ft 상공 구름 보통
고도 25000ft 상공 구름 많음
소나기

TAF: MYNN 170320Z 1706/1806 VRB02KT 9999 TSRA SCT015CB BKN220 PROB30 TEMPO 1711/1718 16009KT 8000 SHRA FEW018CB SCT020 BKN250

4,000개 이상의 공항 관측 자료 및 예보 (METAR 및 TAF 보고).

지도상에서 검색 가능한 기상관측소가 노란 점과 빨간 점으로 표시되어 있습니다.

기상관측소 명을 보려면 표시 위로 마우스를 이동하세요.

날씨 관측과 예보를 보려면 클릭하세요.

지도 변경 : 확대하려면 엑스 표시가 있는 녹색 버튼, 축소하려면 빼기 표시가 있는 녹색 버튼, 다음 페이지의 지도를 보려면 녹색 화살표를 클릭하세요.


METAR-TAF: